DK-0009 weather

Public forecast

Using degrees Celsius for public forecast. Weather courtesy of forecast.io.

Closest aviation weather report (METAR) to Bolhede Glider Field

Closest report is Esbjerg Airport, 9.4 nm (17.3 km) SW. Retrieved 2020/08/09 16:20 UTC (0 seconds ago):

EKEB 091620Z AUTO 01008KT 340V040 9999 NCD 27/18 Q1020

Closest aviation forecast (TAF) to Bolhede Glider Field

Forecast is more than 12 hours old.

Closest forecast is Esbjerg Airport, 9.4 nm (17.3 km) SW. Retrieved 2015/09/18 18:00 UTC (5 years ago):

TAF EKEB 181707Z 1818/1822 24008KT 9999 SCT025 TEMPO 1818/1820 -SHRA SCT020CB